createdAt,value
2018-06-13T00:01:34.325Z,99.90
2018-06-13T00:04:01.985Z,99.90
2018-06-13T00:06:29.569Z,99.90
2018-06-13T00:08:57.099Z,99.90
2018-06-13T00:11:24.715Z,99.90
2018-06-13T00:13:52.245Z,99.90
2018-06-13T00:16:19.773Z,99.90
2018-06-13T00:18:47.373Z,99.90
2018-06-13T00:21:14.917Z,99.90
2018-06-13T00:23:42.441Z,99.90
2018-06-13T00:26:10.052Z,99.90
2018-06-13T00:28:37.586Z,99.90
2018-06-13T00:31:05.253Z,99.90
2018-06-13T00:33:32.909Z,99.90
2018-06-13T00:36:00.433Z,99.90
2018-06-13T00:38:28.004Z,99.90
2018-06-13T00:40:55.661Z,99.90
2018-06-13T00:43:23.221Z,99.90
2018-06-13T00:45:50.778Z,99.90
2018-06-13T00:48:18.389Z,99.90
2018-06-13T00:50:45.957Z,99.90
2018-06-13T00:53:13.489Z,99.90
2018-06-13T00:55:52.589Z,99.90
2018-06-13T00:58:20.164Z,99.90
2018-06-13T01:00:47.717Z,99.90
2018-06-13T01:03:15.285Z,99.90
2018-06-13T01:05:42.862Z,99.90
2018-06-13T01:08:10.431Z,99.90
2018-06-13T01:10:38.090Z,99.90
2018-06-13T01:13:05.756Z,99.90
2018-06-13T01:15:33.325Z,99.90
2018-06-13T01:18:00.912Z,99.90
2018-06-13T01:20:28.452Z,99.90
2018-06-13T01:22:55.993Z,99.90
2018-06-13T01:25:23.670Z,99.90
2018-06-13T01:27:51.221Z,99.90
2018-06-13T01:30:18.825Z,99.90
2018-06-13T01:32:46.518Z,99.90
2018-06-13T01:35:14.085Z,99.90
2018-06-13T01:37:41.615Z,99.90
2018-06-13T01:40:09.234Z,99.90
2018-06-13T01:42:36.755Z,99.90
2018-06-13T01:45:04.482Z,99.90
2018-06-13T01:47:32.051Z,99.90
2018-06-13T01:49:59.624Z,99.90
2018-06-13T01:52:27.240Z,99.90
2018-06-13T01:54:54.849Z,99.90
2018-06-13T01:57:22.421Z,99.90
2018-06-13T01:59:49.959Z,99.90
2018-06-13T02:04:45.127Z,99.90
2018-06-13T02:07:12.663Z,99.90
2018-06-13T02:09:40.249Z,99.90
2018-06-13T02:12:08.237Z,99.90
2018-06-13T02:14:35.801Z,99.90
2018-06-13T02:17:03.437Z,99.90
2018-06-13T02:19:30.973Z,99.90
2018-06-13T02:21:58.525Z,99.90
2018-06-13T02:24:26.089Z,99.90
2018-06-13T02:26:54.540Z,99.90
2018-06-13T02:29:22.257Z,99.90
2018-06-13T02:31:49.834Z,99.90
2018-06-13T02:34:17.404Z,99.90
2018-06-13T02:36:44.983Z,99.90
2018-06-13T02:39:12.551Z,99.90
2018-06-13T02:41:40.088Z,99.90
2018-06-13T02:46:35.215Z,99.90
2018-06-13T02:49:02.954Z,99.90
2018-06-13T02:51:30.494Z,99.90
2018-06-13T02:53:58.126Z,99.90
2018-06-13T02:56:25.666Z,99.90
2018-06-13T02:58:53.183Z,99.90
2018-06-13T03:01:20.782Z,99.90
2018-06-13T03:03:48.376Z,99.90
2018-06-13T03:06:15.898Z,99.90
2018-06-13T03:08:43.485Z,99.90
2018-06-13T03:11:11.022Z,99.90
2018-06-13T03:13:38.629Z,99.90
2018-06-13T03:16:06.189Z,99.90
2018-06-13T03:18:33.754Z,99.90
2018-06-13T03:21:01.289Z,99.90
2018-06-13T03:23:29.170Z,99.90
2018-06-13T03:25:56.669Z,99.90
2018-06-13T03:28:24.242Z,99.90
2018-06-13T03:30:51.788Z,99.90
2018-06-13T03:33:19.453Z,99.90
2018-06-13T03:35:46.990Z,99.90
2018-06-13T03:38:14.550Z,99.90
2018-06-13T03:40:42.152Z,99.90
2018-06-13T03:43:09.734Z,99.90
2018-06-13T03:45:37.350Z,99.90
2018-06-13T03:48:04.914Z,99.90
2018-06-13T03:50:32.474Z,99.90
2018-06-13T03:53:00.087Z,99.90
2018-06-13T03:55:27.747Z,99.90
2018-06-13T03:57:55.325Z,99.90
2018-06-13T04:00:22.900Z,99.90
2018-06-13T04:02:50.417Z,99.90
2018-06-13T04:05:18.044Z,99.90
2018-06-13T04:07:45.657Z,99.90
2018-06-13T04:10:13.327Z,99.90
2018-06-13T04:12:40.937Z,99.90
2018-06-13T04:15:08.527Z,99.90
2018-06-13T04:17:36.072Z,99.90
2018-06-13T04:20:03.708Z,99.90
2018-06-13T04:22:31.409Z,99.90
2018-06-13T04:24:58.916Z,99.90
2018-06-13T04:27:26.779Z,99.90
2018-06-13T04:29:54.571Z,99.90
2018-06-13T04:32:22.149Z,99.90
2018-06-13T04:34:49.669Z,99.90
2018-06-13T04:37:17.392Z,99.90
2018-06-13T04:39:45.240Z,99.90
2018-06-13T04:42:12.861Z,99.90
2018-06-13T04:44:40.510Z,99.90
2018-06-13T04:47:08.175Z,99.90
2018-06-13T04:49:35.734Z,97.40
2018-06-13T04:52:03.322Z,94.00
2018-06-13T04:54:30.882Z,90.30
2018-06-13T04:56:58.599Z,83.50
2018-06-13T04:59:26.265Z,77.50
2018-06-13T05:01:53.901Z,72.50
2018-06-13T05:04:21.519Z,69.50
2018-06-13T05:06:49.119Z,66.90
2018-06-13T05:09:16.693Z,63.30
2018-06-13T05:11:44.294Z,60.30
2018-06-13T05:14:11.883Z,58.80
2018-06-13T05:16:39.499Z,57.50
2018-06-13T05:19:07.074Z,55.20
2018-06-13T05:21:34.926Z,53.60
2018-06-13T05:24:02.683Z,52.70
2018-06-13T05:26:30.358Z,52.10
2018-06-13T05:28:57.947Z,51.40
2018-06-13T05:31:25.476Z,50.30
2018-06-13T05:33:53.288Z,50.40
2018-06-13T05:36:20.873Z,51.60
2018-06-13T05:38:48.419Z,51.90
2018-06-13T05:41:16.481Z,51.50
2018-06-13T05:43:44.169Z,52.20
2018-06-13T05:46:11.823Z,52.60
2018-06-13T05:48:39.411Z,53.50
2018-06-13T05:53:34.561Z,55.00
2018-06-13T05:56:02.485Z,55.50
2018-06-13T05:58:30.239Z,55.70
2018-06-13T06:00:57.881Z,55.90
2018-06-13T06:03:25.465Z,55.70
2018-06-13T06:05:53.065Z,56.00
2018-06-13T06:10:48.633Z,54.90
2018-06-13T06:13:16.284Z,55.00
2018-06-13T06:15:44.024Z,55.20
2018-06-13T06:18:11.927Z,56.00
2018-06-13T06:20:39.577Z,57.40
2018-06-13T06:23:07.114Z,58.70
2018-06-13T06:25:34.682Z,59.70
2018-06-13T06:28:02.258Z,60.10
2018-06-13T06:30:29.844Z,60.90
2018-06-13T06:32:57.409Z,59.90
2018-06-13T06:35:25.020Z,60.90
2018-06-13T06:37:52.592Z,60.90
2018-06-13T06:40:20.162Z,60.00
2018-06-13T06:42:47.841Z,59.40
2018-06-13T06:45:15.437Z,60.40
2018-06-13T06:47:43.008Z,61.00
2018-06-13T06:50:10.856Z,60.80
2018-06-13T06:52:38.479Z,63.10
2018-06-13T06:55:06.070Z,63.80
2018-06-13T07:00:01.306Z,65.20
2018-06-13T07:02:28.866Z,66.10
2018-06-13T07:04:56.456Z,67.20
2018-06-13T07:07:24.028Z,67.30
2018-06-13T07:09:51.824Z,68.20
2018-06-13T07:12:19.928Z,69.60
2018-06-13T07:14:47.519Z,70.00
2018-06-13T07:17:15.227Z,70.70
2018-06-13T07:19:42.914Z,70.50
2018-06-13T07:24:38.454Z,72.60
2018-06-13T07:27:06.221Z,72.10
2018-06-13T07:29:33.777Z,72.60
2018-06-13T07:32:01.349Z,72.60
2018-06-13T07:34:29.033Z,74.00
2018-06-13T07:36:56.596Z,74.10
2018-06-13T07:39:24.149Z,74.10
2018-06-13T07:41:51.727Z,74.80
2018-06-13T07:44:19.276Z,75.10
2018-06-13T07:46:47.049Z,74.40
2018-06-13T07:49:14.656Z,75.30
2018-06-13T07:51:42.287Z,75.20
2018-06-13T07:54:09.859Z,76.10
2018-06-13T07:56:37.613Z,77.50
2018-06-13T07:59:05.485Z,77.70
2018-06-13T08:01:33.219Z,77.50
2018-06-13T08:04:00.857Z,76.60
2018-06-13T08:06:28.461Z,75.50
2018-06-13T08:08:56.195Z,75.70
2018-06-13T08:11:23.765Z,76.60
2018-06-13T08:13:51.657Z,78.20
2018-06-13T08:16:19.269Z,78.30
2018-06-13T08:18:46.858Z,78.10
2018-06-13T08:21:14.690Z,78.10
2018-06-13T08:23:42.371Z,78.10
2018-06-13T08:26:10.106Z,78.00
2018-06-13T08:28:37.616Z,79.30
2018-06-13T08:31:05.256Z,79.90
2018-06-13T08:33:32.873Z,80.10
2018-06-13T08:36:00.491Z,81.70
2018-06-13T08:38:28.105Z,82.90
2018-06-13T08:40:55.697Z,83.00
2018-06-13T08:43:23.309Z,82.70
2018-06-13T08:45:51.309Z,81.80
2018-06-13T08:48:18.993Z,81.20
2018-06-13T08:50:46.557Z,81.90
2018-06-13T08:53:14.105Z,81.50
2018-06-13T08:55:41.921Z,80.80
2018-06-13T08:58:09.495Z,79.60
2018-06-13T09:00:37.336Z,80.30
2018-06-13T09:03:05.048Z,80.00
2018-06-13T09:05:32.793Z,80.00
2018-06-13T09:08:00.374Z,80.00
2018-06-13T09:10:28.027Z,80.80
2018-06-13T09:12:55.572Z,82.30
2018-06-13T09:15:23.094Z,81.80
2018-06-13T09:17:50.738Z,82.20
2018-06-13T09:20:18.462Z,83.40
2018-06-13T09:22:46.324Z,82.10
2018-06-13T09:25:14.112Z,78.80
2018-06-13T09:27:41.907Z,79.30
2018-06-13T09:30:09.506Z,79.20
2018-06-13T09:32:37.159Z,79.10
2018-06-13T09:35:04.824Z,76.80
2018-06-13T09:37:32.400Z,75.10
2018-06-13T09:40:00.055Z,75.30
2018-06-13T09:42:27.612Z,73.50
2018-06-13T09:44:55.154Z,73.60
2018-06-13T09:47:23.456Z,70.90
2018-06-13T09:49:50.339Z,69.80
2018-06-13T09:52:17.927Z,69.90
2018-06-13T09:54:45.552Z,70.20
2018-06-13T09:57:13.114Z,70.60
2018-06-13T09:59:46.288Z,71.40
2018-06-13T10:02:16.757Z,72.20
2018-06-13T10:04:44.770Z,73.40
2018-06-13T10:07:12.318Z,74.20
2018-06-13T10:09:39.938Z,74.90
2018-06-13T10:12:07.766Z,75.30
2018-06-13T10:14:35.486Z,74.70
2018-06-13T10:17:03.182Z,75.90
2018-06-13T10:19:30.736Z,76.30
2018-06-13T10:21:58.333Z,77.70
2018-06-13T10:24:25.909Z,75.10
2018-06-13T10:26:53.453Z,73.60
2018-06-13T10:29:21.052Z,72.20
2018-06-13T10:31:48.591Z,73.40
2018-06-13T10:34:16.103Z,73.00
2018-06-13T10:36:43.650Z,73.20
2018-06-13T10:39:11.211Z,73.60
2018-06-13T10:41:38.760Z,72.10
2018-06-13T10:44:06.333Z,70.20
2018-06-13T10:46:33.885Z,70.20
2018-06-13T10:49:01.434Z,69.70
2018-06-13T10:51:29.002Z,66.90
2018-06-13T10:53:56.635Z,69.30
2018-06-13T10:56:24.195Z,68.50
2018-06-13T10:58:51.753Z,68.50
2018-06-13T11:01:19.293Z,67.30
2018-06-13T11:03:46.829Z,64.30
2018-06-13T11:06:14.405Z,65.30
2018-06-13T11:08:41.962Z,65.30
2018-06-13T11:11:09.493Z,66.10
2018-06-13T11:13:37.122Z,67.00
2018-06-13T11:16:04.669Z,66.80
2018-06-13T11:18:32.277Z,67.30
2018-06-13T11:20:59.904Z,67.20
2018-06-13T11:23:27.453Z,68.00
2018-06-13T11:25:55.042Z,69.10
2018-06-13T11:28:22.602Z,69.90
2018-06-13T11:30:50.336Z,68.80
2018-06-13T11:33:17.922Z,69.60
2018-06-13T11:35:45.488Z,70.50
2018-06-13T11:38:13.088Z,70.90
2018-06-13T11:40:40.714Z,72.10
2018-06-13T11:43:10.300Z,70.60
2018-06-13T11:45:37.875Z,70.80
2018-06-13T11:48:05.681Z,70.50
2018-06-13T11:53:00.738Z,67.00
2018-06-13T11:55:28.320Z,66.10
2018-06-13T11:57:55.970Z,67.70
2018-06-13T12:00:23.701Z,65.30
2018-06-13T12:02:51.278Z,66.10
2018-06-13T12:05:18.880Z,67.00
2018-06-13T12:07:46.490Z,66.70
2018-06-13T12:10:14.038Z,67.00
2018-06-13T12:12:41.684Z,67.30
2018-06-13T12:15:09.226Z,67.70
2018-06-13T12:17:36.782Z,67.90
2018-06-13T12:20:04.454Z,69.50
2018-06-13T12:22:32.041Z,68.80
2018-06-13T12:24:59.564Z,68.50
2018-06-13T12:27:27.258Z,67.90
2018-06-13T12:29:54.878Z,67.30
2018-06-13T12:32:22.450Z,68.00
2018-06-13T12:34:50.061Z,67.40
2018-06-13T12:37:17.610Z,68.10
2018-06-13T12:39:45.158Z,69.10
2018-06-13T12:42:12.772Z,69.40
2018-06-13T12:44:40.330Z,69.10
2018-06-13T12:47:07.918Z,69.80
2018-06-13T12:49:35.446Z,69.60
2018-06-13T12:52:03.165Z,69.50
2018-06-13T12:56:58.299Z,69.90
2018-06-13T12:59:25.874Z,69.90
2018-06-13T13:01:53.428Z,69.60
2018-06-13T13:04:21.047Z,70.00
2018-06-13T13:06:48.631Z,69.70
2018-06-13T13:09:16.198Z,69.90
2018-06-13T13:11:43.978Z,69.90
2018-06-13T13:14:11.937Z,70.30
2018-06-13T13:16:39.569Z,70.20
2018-06-13T13:19:07.160Z,68.60
2018-06-13T13:21:34.893Z,67.60
2018-06-13T13:24:02.641Z,66.10
2018-06-13T13:26:30.208Z,66.60
2018-06-13T13:28:57.933Z,66.80
2018-06-13T13:31:25.588Z,67.10
2018-06-13T13:33:53.266Z,66.40
2018-06-13T13:36:20.908Z,66.60
2018-06-13T13:38:48.549Z,67.70
2018-06-13T13:41:16.241Z,67.80
2018-06-13T13:43:43.795Z,67.00
2018-06-13T13:46:11.494Z,69.00
2018-06-13T13:48:39.083Z,69.80
2018-06-13T13:51:06.669Z,68.20
2018-06-13T13:53:34.197Z,67.90
2018-06-13T13:56:01.780Z,68.50
2018-06-13T13:58:29.329Z,69.20
2018-06-13T14:00:56.861Z,69.80
2018-06-13T14:03:24.449Z,69.80
2018-06-13T14:08:19.691Z,68.50
2018-06-13T14:10:47.321Z,67.80
2018-06-13T14:13:14.887Z,67.20
2018-06-13T14:15:42.469Z,68.20
2018-06-13T14:18:10.041Z,68.30
2018-06-13T14:20:37.744Z,68.90
2018-06-13T14:23:05.325Z,69.10
2018-06-13T14:25:32.901Z,69.30
2018-06-13T14:28:00.469Z,70.60
2018-06-13T14:30:28.045Z,71.20
2018-06-13T14:32:55.635Z,70.70
2018-06-13T14:35:23.219Z,71.20
2018-06-13T14:37:50.747Z,72.20
2018-06-13T14:40:18.373Z,72.00
2018-06-13T14:42:45.917Z,72.50
2018-06-13T14:45:13.672Z,72.70
2018-06-13T14:47:41.264Z,73.50
2018-06-13T14:50:09.071Z,73.30
2018-06-13T14:52:36.619Z,74.20
2018-06-13T14:55:04.237Z,74.80
2018-06-13T14:57:31.990Z,75.20
2018-06-13T15:02:27.169Z,74.60
2018-06-13T15:04:54.743Z,75.30
2018-06-13T15:07:22.328Z,75.80
2018-06-13T15:09:49.961Z,75.40
2018-06-13T15:12:17.619Z,75.70
2018-06-13T15:14:45.203Z,76.60
2018-06-13T15:17:12.881Z,76.60
2018-06-13T15:19:40.495Z,76.20
2018-06-13T15:22:08.336Z,76.40
2018-06-13T15:24:35.918Z,76.90
2018-06-13T15:27:03.568Z,75.60
2018-06-13T15:29:31.173Z,75.30
2018-06-13T15:31:58.795Z,74.50
2018-06-13T15:34:26.585Z,73.60
2018-06-13T15:36:54.219Z,73.40
2018-06-13T15:39:21.832Z,74.00
2018-06-13T15:41:49.432Z,73.90
2018-06-13T15:44:17.081Z,74.40
2018-06-13T15:46:44.777Z,75.50
2018-06-13T15:49:12.364Z,75.90
2018-06-13T15:51:39.970Z,76.30
2018-06-13T15:54:07.699Z,75.30
2018-06-13T15:56:35.272Z,75.50
2018-06-13T15:59:02.948Z,74.10
2018-06-13T16:01:31.025Z,74.10
2018-06-13T16:03:58.614Z,74.30
2018-06-13T16:06:26.186Z,74.70
2018-06-13T16:08:53.742Z,74.80
2018-06-13T16:11:21.398Z,74.90
2018-06-13T16:13:49.056Z,75.20
2018-06-13T16:16:16.762Z,75.60
2018-06-13T16:18:44.390Z,76.00
2018-06-13T16:21:11.980Z,75.70
2018-06-13T16:23:39.626Z,75.70
2018-06-13T16:26:07.236Z,75.40
2018-06-13T16:28:34.812Z,75.90
2018-06-13T16:31:02.516Z,75.50
2018-06-13T16:33:30.098Z,75.30
2018-06-13T16:35:57.682Z,75.10
2018-06-13T16:38:25.350Z,76.00
2018-06-13T16:40:52.934Z,75.70
2018-06-13T16:43:20.642Z,75.50
2018-06-13T16:45:48.379Z,76.60
2018-06-13T16:48:15.978Z,75.50
2018-06-13T16:50:51.957Z,76.10
2018-06-13T16:53:31.102Z,76.60
2018-06-13T16:55:59.046Z,74.90
2018-06-13T16:58:26.725Z,74.90
2018-06-13T17:00:54.317Z,75.20
2018-06-13T17:03:22.474Z,73.40
2018-06-13T17:05:50.090Z,73.90
2018-06-13T17:08:17.692Z,71.80
2018-06-13T17:10:45.319Z,72.50
2018-06-13T17:13:12.895Z,73.70
2018-06-13T17:15:40.474Z,72.20
2018-06-13T17:18:08.211Z,73.20
2018-06-13T17:20:35.832Z,73.00
2018-06-13T17:23:03.450Z,73.80
2018-06-13T17:25:31.182Z,74.60
2018-06-13T17:27:58.782Z,74.90
2018-06-13T17:30:26.386Z,75.70
2018-06-13T17:32:54.002Z,76.50
2018-06-13T17:35:21.625Z,76.60
2018-06-13T17:37:49.230Z,76.60
2018-06-13T17:40:16.845Z,78.20
2018-06-13T17:42:44.438Z,81.00
2018-06-13T17:45:12.046Z,80.50
2018-06-13T17:47:39.670Z,81.80
2018-06-13T17:50:07.234Z,82.60
2018-06-13T17:52:34.906Z,82.60
2018-06-13T17:55:02.554Z,82.50
2018-06-13T17:57:30.104Z,83.50
2018-06-13T17:59:57.712Z,83.10
2018-06-13T18:02:25.334Z,84.70
2018-06-13T18:04:52.902Z,85.30
2018-06-13T18:07:20.492Z,84.10
2018-06-13T18:09:48.098Z,84.80
2018-06-13T18:12:15.787Z,85.40
2018-06-13T18:14:43.319Z,84.70
2018-06-13T18:17:10.912Z,84.60
2018-06-13T18:19:38.618Z,85.10
2018-06-13T18:22:06.262Z,84.90
2018-06-13T18:24:34.024Z,85.70
2018-06-13T18:27:01.557Z,85.30
2018-06-13T18:29:29.103Z,86.10
2018-06-13T18:31:56.686Z,85.90
2018-06-13T18:34:24.278Z,85.50
2018-06-13T18:36:51.969Z,85.20
2018-06-13T18:39:19.557Z,85.20
2018-06-13T18:41:47.178Z,85.40
2018-06-13T18:44:14.788Z,85.70
2018-06-13T18:46:42.420Z,85.60
2018-06-13T18:49:10.117Z,86.50
2018-06-13T18:51:37.706Z,86.20
2018-06-13T18:54:05.592Z,86.80
2018-06-13T18:56:33.156Z,86.70
2018-06-13T18:59:00.733Z,86.90
2018-06-13T19:01:28.326Z,86.70
2018-06-13T19:03:55.922Z,87.30
2018-06-13T19:06:23.427Z,87.50
2018-06-13T19:08:51.076Z,87.70
2018-06-13T19:11:19.118Z,87.40
2018-06-13T19:13:46.799Z,88.20
2018-06-13T19:16:15.020Z,87.30
2018-06-13T19:18:42.583Z,87.60
2018-06-13T19:21:10.174Z,87.50
2018-06-13T19:23:37.829Z,87.60
2018-06-13T19:26:05.458Z,88.20
2018-06-13T19:28:33.448Z,89.80
2018-06-13T19:31:01.094Z,89.80
2018-06-13T19:35:56.134Z,90.00
2018-06-13T19:38:23.763Z,90.30
2018-06-13T19:40:51.307Z,90.50
2018-06-13T19:43:24.593Z,90.90
2018-06-13T19:45:52.287Z,91.00
2018-06-13T19:48:25.673Z,90.90
2018-06-13T19:50:53.223Z,90.90
2018-06-13T19:53:26.610Z,91.40
2018-06-13T19:56:00.046Z,91.30
2018-06-13T19:58:27.717Z,91.50
2018-06-13T20:00:55.307Z,91.70
2018-06-13T20:03:28.593Z,92.20
2018-06-13T20:05:56.130Z,92.40
2018-06-13T20:08:23.704Z,92.80
2018-06-13T20:10:51.322Z,93.10
2018-06-13T20:13:24.602Z,93.20
2018-06-13T20:15:58.000Z,93.40
2018-06-13T20:18:31.374Z,94.00
2018-06-13T20:20:59.153Z,94.60
2018-06-13T20:23:26.741Z,95.10
2018-06-13T20:26:00.052Z,95.40
2018-06-13T20:28:33.268Z,95.20
2018-06-13T20:31:06.785Z,95.30
2018-06-13T20:33:34.913Z,95.70
2018-06-13T20:36:04.018Z,96.30
2018-06-13T20:38:31.839Z,97.00
2018-06-13T20:40:59.470Z,97.50
2018-06-13T20:43:27.078Z,97.40
2018-06-13T20:45:54.746Z,97.60
2018-06-13T20:48:22.337Z,97.80
2018-06-13T20:50:49.946Z,97.90
2018-06-13T20:53:17.615Z,98.50
2018-06-13T20:55:45.173Z,99.30
2018-06-13T20:58:12.727Z,99.70
2018-06-13T21:00:40.526Z,99.40
2018-06-13T21:03:08.129Z,99.90
2018-06-13T21:05:35.722Z,99.90
2018-06-13T21:08:03.401Z,99.90
2018-06-13T21:10:30.952Z,99.90
2018-06-13T21:12:58.535Z,99.90
2018-06-13T21:15:26.105Z,99.90
2018-06-13T21:17:53.679Z,99.90
2018-06-13T21:20:21.300Z,99.90
2018-06-13T21:22:49.336Z,99.90
2018-06-13T21:25:16.944Z,99.90
2018-06-13T21:27:44.692Z,99.90
2018-06-13T21:30:12.558Z,99.90
2018-06-13T21:32:40.629Z,99.90
2018-06-13T21:35:08.380Z,99.90
2018-06-13T21:37:35.962Z,99.90
2018-06-13T21:40:03.647Z,99.90
2018-06-13T21:42:31.216Z,99.90
2018-06-13T21:44:59.120Z,99.90
2018-06-13T21:47:27.019Z,99.90
2018-06-13T21:49:54.608Z,99.90
2018-06-13T21:52:22.292Z,99.90
2018-06-13T21:54:49.852Z,99.90
2018-06-13T21:57:17.423Z,99.90
2018-06-13T21:59:45.293Z,99.90
2018-06-13T22:02:13.004Z,99.90
2018-06-13T22:04:40.591Z,99.90
2018-06-13T22:07:08.197Z,99.90
2018-06-13T22:09:35.999Z,99.90
2018-06-13T22:12:03.575Z,99.90
2018-06-13T22:14:31.146Z,99.90
2018-06-13T22:16:58.717Z,99.90
2018-06-13T22:19:26.307Z,99.90
2018-06-13T22:21:53.949Z,99.90
2018-06-13T22:24:21.534Z,99.90
2018-06-13T22:26:49.139Z,99.90
2018-06-13T22:29:16.765Z,99.90
2018-06-13T22:31:44.334Z,99.90
2018-06-13T22:34:11.891Z,99.90
2018-06-13T22:36:39.495Z,99.90
2018-06-13T22:39:09.785Z,99.90
2018-06-13T22:41:37.465Z,99.90
2018-06-13T22:44:05.249Z,99.90
2018-06-13T22:46:32.972Z,99.90
2018-06-13T22:49:00.600Z,99.90
2018-06-13T22:51:28.551Z,99.90
2018-06-13T22:53:56.103Z,99.90
2018-06-13T22:56:23.824Z,99.90
2018-06-13T22:58:51.456Z,99.90
2018-06-13T23:01:19.026Z,99.90
2018-06-13T23:03:46.642Z,99.90
2018-06-13T23:06:14.254Z,99.90
2018-06-13T23:08:41.850Z,99.90
2018-06-13T23:11:09.387Z,99.90
2018-06-13T23:13:37.506Z,99.90
2018-06-13T23:16:05.106Z,99.90
2018-06-13T23:18:32.680Z,99.90
2018-06-13T23:21:00.277Z,99.90
2018-06-13T23:23:27.898Z,99.90
2018-06-13T23:25:56.015Z,99.90
2018-06-13T23:28:23.838Z,99.90
2018-06-13T23:30:51.538Z,99.90
2018-06-13T23:33:19.122Z,99.90
2018-06-13T23:35:46.721Z,99.90
2018-06-13T23:38:14.655Z,99.90
2018-06-13T23:40:42.245Z,99.90
2018-06-13T23:43:09.908Z,99.90
2018-06-13T23:45:37.546Z,99.90
2018-06-13T23:48:05.103Z,99.90
2018-06-13T23:50:32.713Z,99.90
2018-06-13T23:53:00.270Z,99.90
2018-06-13T23:55:28.220Z,99.90
2018-06-13T23:57:55.812Z,99.90
